createdAt,value
2022-10-11T00:00:20.631Z,12.69
2022-10-11T00:02:48.322Z,12.69
2022-10-11T00:05:16.071Z,12.64
2022-10-11T00:07:43.590Z,12.69
2022-10-11T00:10:11.294Z,12.61
2022-10-11T00:12:38.935Z,12.60
2022-10-11T00:15:07.814Z,12.65
2022-10-11T00:17:35.528Z,12.59
2022-10-11T00:20:04.403Z,12.64
2022-10-11T00:22:31.801Z,12.66
2022-10-11T00:24:59.563Z,12.75
2022-10-11T00:27:27.416Z,12.80
2022-10-11T00:29:54.897Z,12.80
2022-10-11T00:32:22.860Z,12.85
2022-10-11T00:34:50.312Z,12.83
2022-10-11T00:37:18.830Z,12.80
2022-10-11T00:39:46.651Z,12.76
2022-10-11T00:42:16.600Z,12.78
2022-10-11T00:44:47.271Z,12.78
2022-10-11T00:47:21.843Z,12.81
2022-10-11T00:49:56.387Z,12.69
2022-10-11T00:52:37.395Z,12.68
2022-10-11T00:55:13.235Z,12.65
2022-10-11T00:57:43.964Z,12.66
2022-10-11T01:00:13.811Z,12.67
2022-10-11T01:02:42.895Z,12.70
2022-10-11T01:05:30.336Z,12.68
2022-10-11T01:08:00.736Z,12.69
2022-10-11T01:10:29.032Z,12.69
2022-10-11T01:13:08.788Z,12.69
2022-10-11T01:15:47.736Z,12.63
2022-10-11T01:18:27.563Z,12.61
2022-10-11T01:21:07.225Z,12.62
2022-10-11T01:23:43.629Z,12.62
2022-10-11T01:26:38.421Z,12.60
2022-10-11T01:29:27.708Z,12.56
2022-10-11T01:32:34.184Z,12.57
2022-10-11T01:35:21.229Z,12.57
2022-10-11T01:37:59.617Z,12.52
2022-10-11T01:40:41.893Z,12.45
2022-10-11T01:43:10.187Z,12.40
2022-10-11T01:45:38.842Z,12.40
2022-10-11T01:48:12.537Z,12.37
2022-10-11T01:50:46.059Z,12.33
2022-10-11T01:53:19.591Z,12.37
2022-10-11T01:55:56.993Z,12.35
2022-10-11T01:58:39.339Z,12.36
2022-10-11T02:01:31.004Z,12.46
2022-10-11T02:04:24.377Z,12.43
2022-10-11T02:07:01.708Z,12.46
2022-10-11T02:09:50.932Z,12.48
2022-10-11T02:12:30.188Z,12.44
2022-10-11T02:14:59.644Z,12.31
2022-10-11T02:17:33.406Z,12.28
2022-10-11T02:20:06.817Z,12.29
2022-10-11T02:22:38.848Z,12.15
2022-10-11T02:25:10.628Z,12.13
2022-10-11T02:27:40.272Z,12.17
2022-10-11T02:30:09.963Z,12.14
2022-10-11T02:32:41.512Z,12.07
2022-10-11T02:35:11.452Z,11.98
2022-10-11T02:37:41.756Z,12.03
2022-10-11T02:40:29.601Z,12.00
2022-10-11T02:43:03.583Z,12.06
2022-10-11T02:45:48.279Z,12.12
2022-10-11T02:48:16.148Z,11.98
2022-10-11T02:50:44.385Z,11.89
2022-10-11T02:53:11.853Z,11.89
2022-10-11T02:55:39.444Z,11.84
2022-10-11T02:58:07.273Z,11.80
2022-10-11T03:00:34.697Z,11.87
2022-10-11T03:03:02.103Z,11.97
2022-10-11T03:05:29.777Z,11.97
2022-10-11T03:07:57.279Z,12.02
2022-10-11T03:10:24.670Z,12.05
2022-10-11T03:12:52.368Z,12.16
2022-10-11T03:15:19.787Z,12.18
2022-10-11T03:17:47.279Z,12.13
2022-10-11T03:20:15.316Z,12.21
2022-10-11T03:22:42.740Z,12.28
2022-10-11T03:25:10.180Z,12.31
2022-10-11T03:27:38.024Z,12.27
2022-10-11T03:30:06.320Z,12.31
2022-10-11T03:32:33.793Z,12.32
2022-10-11T03:35:01.588Z,12.22
2022-10-11T03:37:29.056Z,12.32
2022-10-11T03:39:56.500Z,12.31
2022-10-11T03:42:24.280Z,12.18
2022-10-11T03:44:52.012Z,12.12
2022-10-11T03:47:20.036Z,12.05
2022-10-11T03:49:47.711Z,12.02
2022-10-11T03:52:15.148Z,11.99
2022-10-11T03:54:42.560Z,11.97
2022-10-11T03:57:10.209Z,11.93
2022-10-11T03:59:37.691Z,11.94
2022-10-11T04:02:05.163Z,12.04
2022-10-11T04:04:33.081Z,12.12
2022-10-11T04:07:00.540Z,12.11
2022-10-11T04:09:28.060Z,12.07
2022-10-11T04:11:55.704Z,12.09
2022-10-11T04:14:23.141Z,12.02
2022-10-11T04:16:50.565Z,12.07
2022-10-11T04:19:18.459Z,12.11
2022-10-11T04:21:46.183Z,12.15
2022-10-11T04:24:13.568Z,12.19
2022-10-11T04:26:41.281Z,12.26
2022-10-11T04:29:09.044Z,12.34
2022-10-11T04:31:36.464Z,12.28
2022-10-11T04:34:04.184Z,12.32
2022-10-11T04:36:33.886Z,12.32
2022-10-11T04:39:01.849Z,12.32
2022-10-11T04:41:29.522Z,12.36
2022-10-11T04:43:57.107Z,12.41
2022-10-11T04:46:24.780Z,12.34
2022-10-11T04:48:52.472Z,12.43
2022-10-11T04:51:20.280Z,12.46
2022-10-11T04:53:48.889Z,12.43
2022-10-11T04:56:18.471Z,12.46
2022-10-11T04:58:49.336Z,12.44
2022-10-11T05:01:17.040Z,12.45
2022-10-11T05:03:44.372Z,12.42
2022-10-11T05:06:12.259Z,12.41
2022-10-11T05:08:40.392Z,12.36
2022-10-11T05:11:11.078Z,12.40
2022-10-11T05:13:39.128Z,12.40
2022-10-11T05:16:10.866Z,12.47
2022-10-11T05:18:39.937Z,12.48
2022-10-11T05:21:14.932Z,12.49
2022-10-11T05:23:42.790Z,12.51
2022-10-11T05:26:10.575Z,12.56
2022-10-11T05:28:38.123Z,12.59
2022-10-11T05:31:06.343Z,12.50
2022-10-11T05:33:34.361Z,12.57
2022-10-11T05:36:02.278Z,12.60
2022-10-11T05:38:30.647Z,12.66
2022-10-11T05:41:02.918Z,12.69
2022-10-11T05:43:31.179Z,12.76
2022-10-11T05:45:59.155Z,12.76
2022-10-11T05:48:31.948Z,12.82
2022-10-11T05:51:05.110Z,12.93
2022-10-11T05:53:32.798Z,12.99
2022-10-11T05:56:00.585Z,13.01
2022-10-11T05:58:28.383Z,13.13
2022-10-11T06:00:57.045Z,13.19
2022-10-11T06:03:24.928Z,13.30
2022-10-11T06:05:56.787Z,13.40
2022-10-11T06:08:24.941Z,13.46
2022-10-11T06:10:52.262Z,13.54
2022-10-11T06:13:19.903Z,13.60
2022-10-11T06:15:47.547Z,13.69
2022-10-11T06:18:15.308Z,13.77
2022-10-11T06:20:42.740Z,13.83
2022-10-11T06:23:10.409Z,13.85
2022-10-11T06:25:37.757Z,13.98
2022-10-11T06:28:05.211Z,14.03
2022-10-11T06:30:32.912Z,14.10
2022-10-11T06:33:04.630Z,14.12
2022-10-11T06:35:32.880Z,14.22
2022-10-11T06:38:00.213Z,14.25
2022-10-11T06:40:27.719Z,14.36
2022-10-11T06:42:55.420Z,14.42
2022-10-11T06:45:22.837Z,14.56
2022-10-11T06:47:50.232Z,14.68
2022-10-11T06:50:29.906Z,14.59
2022-10-11T06:53:07.829Z,14.66
2022-10-11T06:55:35.504Z,14.56
2022-10-11T06:58:02.902Z,14.63
2022-10-11T07:00:30.918Z,14.63
2022-10-11T07:02:58.545Z,14.58
2022-10-11T07:05:26.157Z,14.67
2022-10-11T07:07:53.549Z,14.76
2022-10-11T07:10:21.295Z,14.75
2022-10-11T07:12:48.748Z,14.85
2022-10-11T07:15:16.194Z,14.93
2022-10-11T07:17:43.958Z,15.02
2022-10-11T07:20:12.302Z,15.12
2022-10-11T07:22:39.685Z,15.26
2022-10-11T07:25:07.760Z,15.28
2022-10-11T07:27:35.171Z,15.45
2022-10-11T07:30:02.920Z,15.58
2022-10-11T07:32:31.174Z,15.63
2022-10-11T07:34:58.522Z,15.77
2022-10-11T07:37:26.194Z,15.85
2022-10-11T07:39:58.845Z,15.90
2022-10-11T07:42:26.267Z,15.96
2022-10-11T07:44:53.947Z,16.03
2022-10-11T07:47:21.370Z,16.15
2022-10-11T07:49:49.203Z,16.40
2022-10-11T07:52:16.907Z,16.49
2022-10-11T07:54:44.777Z,16.55
2022-10-11T07:57:16.256Z,16.51
2022-10-11T07:59:49.292Z,16.50
2022-10-11T08:02:17.545Z,16.41
2022-10-11T08:04:45.182Z,16.43
2022-10-11T08:07:12.612Z,16.49
2022-10-11T08:09:40.731Z,16.49
2022-10-11T08:12:08.492Z,16.62
2022-10-11T08:14:35.894Z,16.64
2022-10-11T08:17:03.329Z,16.81
2022-10-11T08:19:31.370Z,16.86
2022-10-11T08:21:58.931Z,16.70
2022-10-11T08:24:26.344Z,16.79
2022-10-11T08:26:54.104Z,16.82
2022-10-11T08:29:21.485Z,16.84
2022-10-11T08:31:49.133Z,16.97
2022-10-11T08:34:16.820Z,17.17
2022-10-11T08:36:44.515Z,17.20
2022-10-11T08:39:11.919Z,17.20
2022-10-11T08:41:46.062Z,17.16
2022-10-11T08:44:20.824Z,17.31
2022-10-11T08:47:00.515Z,17.35
2022-10-11T08:49:32.495Z,17.81
2022-10-11T08:52:04.605Z,18.11
2022-10-11T08:54:57.885Z,17.96
2022-10-11T08:57:31.912Z,18.03
2022-10-11T09:00:04.644Z,17.97
2022-10-11T09:03:02.975Z,18.40
2022-10-11T09:05:30.853Z,18.62
2022-10-11T09:08:16.889Z,18.46
2022-10-11T09:11:09.745Z,18.77
2022-10-11T09:14:07.821Z,18.68
2022-10-11T09:17:04.498Z,18.86
2022-10-11T09:20:03.044Z,18.84
2022-10-11T09:22:50.211Z,18.88
2022-10-11T09:25:41.929Z,18.68
2022-10-11T09:28:24.621Z,18.53
2022-10-11T09:30:56.296Z,18.45
2022-10-11T09:33:42.349Z,18.84
2022-10-11T09:36:37.344Z,18.66
2022-10-11T09:39:29.337Z,18.75
2022-10-11T09:42:01.706Z,19.00
2022-10-11T09:44:33.931Z,18.86
2022-10-11T09:47:01.674Z,19.02
2022-10-11T09:49:58.283Z,18.88
2022-10-11T09:52:51.337Z,18.85
2022-10-11T09:55:52.439Z,19.08
2022-10-11T09:58:30.384Z,19.11
2022-10-11T10:01:08.283Z,18.97
2022-10-11T10:03:39.385Z,19.08
2022-10-11T10:06:15.953Z,19.32
2022-10-11T10:08:46.905Z,19.33
2022-10-11T10:11:14.704Z,19.42
2022-10-11T10:13:42.024Z,19.52
2022-10-11T10:16:22.975Z,19.79
2022-10-11T10:18:54.495Z,19.51
2022-10-11T10:21:35.431Z,19.51
2022-10-11T10:24:09.538Z,19.37
2022-10-11T10:26:37.341Z,19.70
2022-10-11T10:29:16.628Z,19.72
2022-10-11T10:35:09.295Z,19.58
2022-10-11T10:37:52.933Z,19.69
2022-10-11T10:40:32.507Z,19.43
2022-10-11T10:43:00.223Z,19.36
2022-10-11T10:45:52.364Z,19.40
2022-10-11T10:48:27.410Z,19.52
2022-10-11T10:50:58.894Z,19.52
2022-10-11T10:53:37.528Z,19.55
2022-10-11T10:56:31.372Z,19.55
2022-10-11T11:00:00.915Z,19.50
2022-10-11T11:02:47.214Z,19.03
2022-10-11T11:05:21.333Z,19.07
2022-10-11T11:08:01.746Z,19.29
2022-10-11T11:10:59.726Z,19.32
2022-10-11T11:13:54.740Z,19.42
2022-10-11T11:16:40.321Z,19.65
2022-10-11T11:19:32.664Z,19.42
2022-10-11T11:22:23.823Z,19.52
2022-10-11T11:25:15.989Z,19.78
2022-10-11T11:28:03.408Z,19.72
2022-10-11T11:30:48.495Z,19.88
2022-10-11T11:33:43.067Z,19.82
2022-10-11T11:36:24.349Z,19.81
2022-10-11T11:39:02.943Z,19.89
2022-10-11T11:41:42.816Z,19.95
2022-10-11T11:44:37.772Z,19.91
2022-10-11T11:47:29.241Z,19.93
2022-10-11T11:50:01.303Z,20.00
2022-10-11T11:52:44.780Z,20.01
2022-10-11T11:55:25.417Z,19.90
2022-10-11T11:58:25.071Z,19.76
2022-10-11T12:01:01.251Z,19.63
2022-10-11T12:03:41.382Z,19.66
2022-10-11T12:06:17.923Z,19.86
2022-10-11T12:08:55.453Z,19.76
2022-10-11T12:11:34.562Z,19.93
2022-10-11T12:14:27.403Z,19.84
2022-10-11T12:17:21.850Z,19.83
2022-10-11T12:20:09.081Z,20.04
2022-10-11T12:23:00.351Z,20.03
2022-10-11T12:25:28.682Z,20.09
2022-10-11T12:27:58.213Z,20.06
